Time;durP1;ratioP1;P1;durP2;ratioP2;P2;SDS_P1;SDS_P2;PMS_P1;PMS_P2;Temp;Humidity;BMP_temperature;BMP_pressure;BME280_temperature;BME280_humidity;BME280_pressure;Samples;Min_cycle;Max_cycle;Signal;HPM_P1;HPM_P2
2022/08/28 00:02:08;;;;;;;;;;;17.00;99.90;;;;;;8296516;28;19941;-72
2022/08/28 00:06:11;;;;;;;;;;;16.90;99.90;;;;;;8313412;28;21670;-73
2022/08/28 00:10:15;;;;;;;;;;;16.90;99.90;;;;;;8293600;28;19946;-73
2022/08/28 00:14:19;;;;;;;;;;;16.80;99.90;;;;;;8286996;28;20377;-73
2022/08/28 00:18:21;;;;;;;;;;;16.70;99.90;;;;;;8379867;28;19939;-73
2022/08/28 00:22:23;;;;;;;;;;;16.60;99.90;;;;;;8288716;28;19933;-73
2022/08/28 00:30:49;;;;;;;;;;;16.50;99.90;;;;;;8291854;28;19926;-72
2022/08/28 00:34:51;;;;;;;;;;;16.40;99.90;;;;;;8299036;28;19940;-73
2022/08/28 00:38:53;;;;;;;;;;;16.30;99.90;;;;;;8285835;28;19933;-73
2022/08/28 00:42:55;;;;;;;;;;;16.30;99.90;;;;;;8338785;28;19940;-72
2022/08/28 00:46:58;;;;;;;;;;;16.20;99.90;;;;;;8288424;28;19934;-73
2022/08/28 00:55:31;;;;;;;;;;;16.20;99.90;;;;;;8303942;28;19930;-73
2022/08/28 00:59:33;;;;;;;;;;;16.10;99.90;;;;;;8401479;28;19930;-72
2022/08/28 01:03:35;;;;;;;;;;;16.10;99.90;;;;;;8455240;28;19954;-72
2022/08/28 01:07:37;;;;;;;;;;;16.00;99.90;;;;;;8437768;28;19924;-74
2022/08/28 01:11:39;;;;;;;;;;;16.00;99.90;;;;;;8450562;27;19931;-73
2022/08/28 01:15:41;;;;;;;;;;;15.90;99.90;;;;;;8450838;28;20379;-73
2022/08/28 01:19:55;;;;;;;;;;;15.90;99.90;;;;;;8441988;28;19928;-73
2022/08/28 01:24:03;;;;;;;;;;;15.80;99.90;;;;;;8436973;28;19932;-72
2022/08/28 01:28:07;;;;;;;;;;;15.80;99.90;;;;;;8452125;27;19928;-73
2022/08/28 01:32:08;;;;;;;;;;;15.80;99.90;;;;;;8455567;28;20263;-72
2022/08/28 01:36:11;;;;;;;;;;;15.70;99.90;;;;;;8449414;28;20050;-73
2022/08/28 01:40:16;;;;;;;;;;;15.70;99.90;;;;;;8454137;28;19934;-74
2022/08/28 01:44:21;;;;;;;;;;;15.70;99.90;;;;;;8433323;27;19974;-73
2022/08/28 01:48:24;;;;;;;;;;;15.70;99.90;;;;;;8455701;28;20488;-72
2022/08/28 01:52:25;;;;;;;;;;;15.70;99.90;;;;;;8437421;28;19930;-72
2022/08/28 01:56:27;;;;;;;;;;;15.60;99.90;;;;;;8435619;28;19924;-73
2022/08/28 02:00:29;;;;;;;;;;;15.60;99.90;;;;;;8454479;27;20020;-73
2022/08/28 02:04:30;;;;;;;;;;;15.60;99.90;;;;;;8453177;28;19923;-72
2022/08/28 02:08:32;;;;;;;;;;;15.50;99.90;;;;;;8454063;28;20782;-72
2022/08/28 02:12:35;;;;;;;;;;;15.50;99.90;;;;;;8454697;28;20282;-73
2022/08/28 02:16:36;;;;;;;;;;;15.40;99.90;;;;;;8454310;28;19924;-73
2022/08/28 02:20:38;;;;;;;;;;;15.30;99.90;;;;;;8447718;28;19928;-73
2022/08/28 02:24:40;;;;;;;;;;;15.30;99.90;;;;;;8432626;28;19931;-72
2022/08/28 02:28:42;;;;;;;;;;;15.30;99.90;;;;;;8452451;28;19927;-73
2022/08/28 02:32:44;;;;;;;;;;;15.20;99.90;;;;;;8450388;28;20366;-72
2022/08/28 02:36:46;;;;;;;;;;;15.20;99.90;;;;;;8432145;28;19924;-73
2022/08/28 02:40:48;;;;;;;;;;;15.10;99.90;;;;;;8440297;28;19935;-73
2022/08/28 02:44:50;;;;;;;;;;;15.10;99.90;;;;;;8452893;28;19962;-73
2022/08/28 02:48:51;;;;;;;;;;;15.00;99.90;;;;;;8441474;28;19932;-73
2022/08/28 02:52:53;;;;;;;;;;;15.00;99.90;;;;;;8456619;28;20401;-73
2022/08/28 02:56:54;;;;;;;;;;;15.00;99.90;;;;;;8456229;28;20401;-72
2022/08/28 03:00:56;;;;;;;;;;;14.90;99.90;;;;;;8460021;27;19953;-72
2022/08/28 03:04:59;;;;;;;;;;;14.90;99.90;;;;;;8435432;28;20007;-73
2022/08/28 03:09:00;;;;;;;;;;;14.90;99.90;;;;;;8461461;28;19943;-72
2022/08/28 03:13:02;;;;;;;;;;;14.80;99.90;;;;;;8456435;28;19939;-73
2022/08/28 03:17:06;;;;;;;;;;;14.80;99.90;;;;;;8459288;28;19927;-72
2022/08/28 03:21:08;;;;;;;;;;;14.80;99.90;;;;;;8456665;28;20673;-72
2022/08/28 03:25:10;;;;;;;;;;;14.70;99.90;;;;;;8459067;28;19924;-72
2022/08/28 03:29:12;;;;;;;;;;;14.70;99.90;;;;;;8454043;28;22228;-72
2022/08/28 03:33:14;;;;;;;;;;;14.60;99.90;;;;;;8441111;28;19924;-72
2022/08/28 03:37:16;;;;;;;;;;;14.60;99.90;;;;;;8449912;27;19947;-72
2022/08/28 03:41:18;;;;;;;;;;;14.60;99.90;;;;;;8458467;27;19924;-73
2022/08/28 03:45:20;;;;;;;;;;;14.50;99.90;;;;;;8454190;28;19924;-72
2022/08/28 03:49:22;;;;;;;;;;;14.50;99.90;;;;;;8454006;27;19935;-74
2022/08/28 03:53:24;;;;;;;;;;;14.50;99.90;;;;;;8455545;27;20383;-74
2022/08/28 03:57:26;;;;;;;;;;;14.40;99.90;;;;;;8445363;28;19924;-74
2022/08/28 04:01:28;;;;;;;;;;;14.40;99.90;;;;;;8458181;28;19932;-75
2022/08/28 04:05:30;;;;;;;;;;;14.40;99.90;;;;;;8460547;27;19979;-74
2022/08/28 04:09:31;;;;;;;;;;;14.40;99.90;;;;;;8456352;28;20011;-75
2022/08/28 04:13:33;;;;;;;;;;;14.30;99.90;;;;;;8457323;28;19932;-74
2022/08/28 04:17:39;;;;;;;;;;;14.30;99.90;;;;;;8435501;28;19935;-74
2022/08/28 04:21:41;;;;;;;;;;;14.30;99.90;;;;;;8459536;28;19939;-75
2022/08/28 04:25:43;;;;;;;;;;;14.20;99.90;;;;;;8456915;28;19931;-74
2022/08/28 04:29:44;;;;;;;;;;;14.20;99.90;;;;;;8454728;27;19931;-74
2022/08/28 04:33:46;;;;;;;;;;;14.20;99.90;;;;;;8453246;28;19970;-74
2022/08/28 04:37:48;;;;;;;;;;;14.20;99.90;;;;;;8455524;28;19931;-74
2022/08/28 04:41:53;;;;;;;;;;;14.10;99.90;;;;;;8456081;28;19924;-74
2022/08/28 04:45:55;;;;;;;;;;;14.10;99.90;;;;;;8456849;27;19946;-74
2022/08/28 04:49:57;;;;;;;;;;;14.10;99.90;;;;;;8458493;28;19931;-75
2022/08/28 04:54:00;;;;;;;;;;;14.10;99.90;;;;;;8453497;28;19924;-75
2022/08/28 04:58:02;;;;;;;;;;;14.00;99.90;;;;;;8453340;28;19931;-74
2022/08/28 05:02:04;;;;;;;;;;;14.00;99.90;;;;;;8451771;28;20240;-74
2022/08/28 05:06:06;;;;;;;;;;;14.00;99.90;;;;;;8440392;27;19931;-74
2022/08/28 05:10:08;;;;;;;;;;;14.00;99.90;;;;;;8453913;28;19943;-74
2022/08/28 05:14:10;;;;;;;;;;;14.00;99.90;;;;;;8456145;28;19923;-74
2022/08/28 05:18:18;;;;;;;;;;;14.00;99.90;;;;;;8446254;28;19928;-74
2022/08/28 05:22:19;;;;;;;;;;;14.00;99.90;;;;;;8458758;28;20255;-74
2022/08/28 05:26:22;;;;;;;;;;;14.00;99.90;;;;;;8455514;28;20377;-74
2022/08/28 05:30:23;;;;;;;;;;;14.10;99.90;;;;;;8427805;28;19982;-74
2022/08/28 05:34:25;;;;;;;;;;;14.10;99.90;;;;;;8449980;27;20307;-74
2022/08/28 05:38:27;;;;;;;;;;;14.20;99.90;;;;;;8454273;28;20424;-74
2022/08/28 05:42:28;;;;;;;;;;;14.20;99.90;;;;;;8455778;28;19924;-74
2022/08/28 05:46:31;;;;;;;;;;;14.30;99.90;;;;;;8455043;28;20237;-74
2022/08/28 05:50:35;;;;;;;;;;;14.30;99.90;;;;;;8450849;28;19935;-74
2022/08/28 05:54:37;;;;;;;;;;;14.40;99.90;;;;;;8459284;28;19939;-74
2022/08/28 05:58:39;;;;;;;;;;;14.50;99.90;;;;;;8425683;28;19923;-74
2022/08/28 06:02:43;;;;;;;;;;;14.50;99.90;;;;;;8448211;27;21748;-74
2022/08/28 06:06:45;;;;;;;;;;;14.60;99.90;;;;;;8446739;28;19924;-75
2022/08/28 06:10:46;;;;;;;;;;;14.70;99.90;;;;;;8447542;28;19935;-75
2022/08/28 06:14:51;;;;;;;;;;;14.80;99.90;;;;;;8452089;28;19928;-74
2022/08/28 06:18:54;;;;;;;;;;;14.80;99.90;;;;;;8439610;27;19927;-74
2022/08/28 06:22:55;;;;;;;;;;;15.00;99.90;;;;;;8442379;28;19939;-75
2022/08/28 06:26:58;;;;;;;;;;;15.10;99.90;;;;;;8451176;28;19923;-75
2022/08/28 06:31:01;;;;;;;;;;;15.20;99.90;;;;;;8424186;28;20478;-74
2022/08/28 06:35:22;;;;;;;;;;;15.30;99.90;;;;;;8444617;28;19970;-74
2022/08/28 06:39:24;;;;;;;;;;;15.50;99.90;;;;;;8419607;28;20411;-74
2022/08/28 06:43:27;;;;;;;;;;;15.60;99.90;;;;;;8450066;28;19942;-75
2022/08/28 06:47:29;;;;;;;;;;;15.80;99.90;;;;;;8428812;28;19924;-74
2022/08/28 06:51:30;;;;;;;;;;;16.00;99.90;;;;;;8449760;28;19923;-74
2022/08/28 06:55:32;;;;;;;;;;;16.20;99.90;;;;;;8450931;28;19924;-74
2022/08/28 06:59:33;;;;;;;;;;;16.40;99.90;;;;;;8450543;28;19931;-74
2022/08/28 07:03:35;;;;;;;;;;;16.60;99.90;;;;;;8452106;28;19947;-74
2022/08/28 07:07:37;;;;;;;;;;;16.70;99.90;;;;;;8449001;28;19943;-75
2022/08/28 07:11:39;;;;;;;;;;;16.90;99.90;;;;;;8454542;28;19924;-74
2022/08/28 07:15:41;;;;;;;;;;;17.10;99.90;;;;;;8445100;28;19928;-75
2022/08/28 07:19:42;;;;;;;;;;;17.20;99.90;;;;;;8447719;28;19996;-74
2022/08/28 07:23:45;;;;;;;;;;;17.40;99.90;;;;;;8453365;28;19931;-75
2022/08/28 07:27:46;;;;;;;;;;;17.50;99.90;;;;;;8454315;28;19928;-74
2022/08/28 07:31:50;;;;;;;;;;;17.60;99.90;;;;;;8447903;28;19923;-75
2022/08/28 07:35:52;;;;;;;;;;;17.70;99.90;;;;;;8438645;28;19942;-74
2022/08/28 07:39:54;;;;;;;;;;;17.80;99.90;;;;;;8447070;28;19927;-74
2022/08/28 07:48:16;;;;;;;;;;;18.00;99.90;;;;;;8450972;27;19935;-74
2022/08/28 07:52:18;;;;;;;;;;;18.10;99.90;;;;;;8459262;28;19969;-74
2022/08/28 07:56:20;;;;;;;;;;;18.20;99.90;;;;;;8443344;28;19923;-74
2022/08/28 08:00:21;;;;;;;;;;;18.30;99.90;;;;;;8449133;27;19923;-74
2022/08/28 08:04:24;;;;;;;;;;;18.40;99.90;;;;;;8459085;27;20031;-74
2022/08/28 08:08:25;;;;;;;;;;;18.50;99.90;;;;;;8453352;27;19928;-74
2022/08/28 08:12:27;;;;;;;;;;;18.60;99.90;;;;;;8455558;27;19923;-74
2022/08/28 08:16:32;;;;;;;;;;;18.70;99.90;;;;;;8445134;28;19931;-74
2022/08/28 08:20:33;;;;;;;;;;;18.70;99.90;;;;;;8439034;27;19939;-74
2022/08/28 08:24:35;;;;;;;;;;;18.70;99.90;;;;;;8430069;28;19954;-74
2022/08/28 08:28:37;;;;;;;;;;;18.70;99.90;;;;;;8427194;27;19932;-74
2022/08/28 08:32:39;;;;;;;;;;;18.80;99.90;;;;;;8445203;28;19932;-74
2022/08/28 08:36:40;;;;;;;;;;;18.70;99.90;;;;;;8442189;27;20331;-73
2022/08/28 08:40:42;;;;;;;;;;;18.70;99.90;;;;;;8449700;27;19938;-74
2022/08/28 08:44:46;;;;;;;;;;;18.70;99.90;;;;;;8451122;27;19927;-74
2022/08/28 08:48:48;;;;;;;;;;;18.80;99.90;;;;;;8426995;27;19924;-75
2022/08/28 08:52:55;;;;;;;;;;;18.90;99.90;;;;;;8441679;27;19928;-74
2022/08/28 08:56:59;;;;;;;;;;;19.00;99.90;;;;;;8444587;28;20295;-74
2022/08/28 09:01:22;;;;;;;;;;;19.10;99.90;;;;;;8436961;27;19939;-74
2022/08/28 09:05:47;;;;;;;;;;;19.20;99.90;;;;;;8446277;27;19933;-74
2022/08/28 09:09:53;;;;;;;;;;;19.30;99.90;;;;;;8437959;27;19939;-75
2022/08/28 09:14:05;;;;;;;;;;;19.40;99.90;;;;;;8444554;28;19932;-74
2022/08/28 09:18:07;;;;;;;;;;;19.40;99.90;;;;;;8441432;28;20394;-74
2022/08/28 09:22:09;;;;;;;;;;;19.60;99.90;;;;;;8437589;27;19923;-74
2022/08/28 09:26:19;;;;;;;;;;;19.70;99.90;;;;;;8444108;27;20298;-74
2022/08/28 09:30:28;;;;;;;;;;;19.80;99.90;;;;;;8440579;27;19939;-75
2022/08/28 09:34:31;;;;;;;;;;;19.90;99.90;;;;;;8443449;27;19953;-76
2022/08/28 09:38:38;;;;;;;;;;;20.10;99.90;;;;;;8446039;27;20014;-74
2022/08/28 09:47:35;;;;;;;;;;;20.50;99.90;;;;;;8445722;28;19931;-74
2022/08/28 09:51:38;;;;;;;;;;;20.60;99.90;;;;;;8441747;27;19924;-74
2022/08/28 09:55:58;;;;;;;;;;;20.80;99.90;;;;;;8425598;27;19935;-73
2022/08/28 10:00:00;;;;;;;;;;;20.90;99.90;;;;;;8418503;28;19923;-73
2022/08/28 10:04:04;;;;;;;;;;;21.00;99.90;;;;;;8433417;27;20343;-73
2022/08/28 10:08:14;;;;;;;;;;;21.00;99.90;;;;;;8433747;28;19996;-73
2022/08/28 10:12:25;;;;;;;;;;;20.80;99.90;;;;;;8422634;28;19924;-73
2022/08/28 10:16:42;;;;;;;;;;;20.70;99.90;;;;;;8418084;28;20311;-73
2022/08/28 10:20:48;;;;;;;;;;;20.50;99.90;;;;;;8407402;28;20534;-73
2022/08/28 10:25:02;;;;;;;;;;;20.40;99.90;;;;;;8439963;28;20006;-73
2022/08/28 10:29:09;;;;;;;;;;;20.20;99.90;;;;;;8427401;28;19975;-73
2022/08/28 10:33:20;;;;;;;;;;;20.10;99.90;;;;;;8428597;28;20244;-73
2022/08/28 10:37:21;;;;;;;;;;;20.20;99.90;;;;;;8443048;28;19931;-72
2022/08/28 10:41:25;;;;;;;;;;;20.10;99.90;;;;;;8425941;28;19939;-73
2022/08/28 10:45:29;;;;;;;;;;;20.20;99.90;;;;;;8430776;28;19932;-72
2022/08/28 10:49:33;;;;;;;;;;;20.10;99.90;;;;;;8440860;28;19939;-73
2022/08/28 10:53:47;;;;;;;;;;;20.10;99.90;;;;;;8430046;28;20390;-73
2022/08/28 10:57:52;;;;;;;;;;;20.00;99.90;;;;;;8430491;28;19931;-72
2022/08/28 11:01:54;;;;;;;;;;;20.30;99.90;;;;;;8419662;28;19923;-72
2022/08/28 11:06:00;;;;;;;;;;;20.50;99.90;;;;;;8426335;28;19932;-74
2022/08/28 11:10:40;;;;;;;;;;;20.70;99.90;;;;;;8437234;28;19932;-73
2022/08/28 11:14:44;;;;;;;;;;;20.70;99.90;;;;;;8302082;28;19960;-73
2022/08/28 11:18:57;;;;;;;;;;;20.70;99.90;;;;;;8372487;28;20019;-73
2022/08/28 11:23:14;;;;;;;;;;;20.70;99.90;;;;;;8452663;27;19924;-73
2022/08/28 11:27:22;;;;;;;;;;;20.70;99.90;;;;;;8429989;27;19931;-73
2022/08/28 11:31:26;;;;;;;;;;;20.80;99.90;;;;;;8425754;27;19935;-72
2022/08/28 11:35:29;;;;;;;;;;;20.90;99.90;;;;;;8445822;27;19930;-72
2022/08/28 11:39:31;;;;;;;;;;;21.00;99.90;;;;;;8417347;27;19928;-73
2022/08/28 11:43:34;;;;;;;;;;;21.10;99.90;;;;;;8439873;27;19935;-73
2022/08/28 11:47:38;;;;;;;;;;;21.10;99.90;;;;;;8438025;27;19924;-74
2022/08/28 11:51:58;;;;;;;;;;;21.10;99.90;;;;;;8444227;27;19931;-73
2022/08/28 11:56:23;;;;;;;;;;;21.30;99.90;;;;;;8437828;27;19927;-73
2022/08/28 12:00:50;;;;;;;;;;;21.30;99.90;;;;;;8280566;28;20015;-72
2022/08/28 12:04:52;;;;;;;;;;;21.30;99.90;;;;;;8336306;28;20368;-72
2022/08/28 12:08:57;;;;;;;;;;;21.30;99.90;;;;;;8273907;28;19929;-73
2022/08/28 12:13:02;;;;;;;;;;;21.60;99.90;;;;;;8272792;28;20257;-73
2022/08/28 12:17:22;;;;;;;;;;;22.00;99.90;;;;;;8275224;28;20296;-73
2022/08/28 12:21:26;;;;;;;;;;;22.00;99.90;;;;;;8278349;28;21925;-73
2022/08/28 12:25:36;;;;;;;;;;;22.00;99.90;;;;;;8274547;28;19934;-73
2022/08/28 12:29:49;;;;;;;;;;;21.90;99.90;;;;;;8333110;28;19933;-73
2022/08/28 12:34:00;;;;;;;;;;;22.00;99.90;;;;;;8274926;28;19929;-72
2022/08/28 12:38:03;;;;;;;;;;;22.10;99.90;;;;;;8277513;28;20270;-73
2022/08/28 12:42:13;;;;;;;;;;;22.20;99.90;;;;;;8338139;28;19944;-73
2022/08/28 12:46:22;;;;;;;;;;;22.10;99.90;;;;;;8277045;28;20337;-72
2022/08/28 12:50:27;;;;;;;;;;;22.00;99.90;;;;;;8272520;28;20254;-72
2022/08/28 12:54:28;;;;;;;;;;;22.00;99.90;;;;;;8274541;28;19983;-73
2022/08/28 12:58:32;;;;;;;;;;;21.90;99.90;;;;;;8342724;28;19925;-72
2022/08/28 13:12:38;;;;;;;;;;;22.20;99.90;;;;;;8277824;28;19932;-73
2022/08/28 13:16:57;;;;;;;;;;;22.20;99.90;;;;;;8275274;28;19982;-73
2022/08/28 13:21:12;;;;;;;;;;;22.10;99.90;;;;;;8345438;28;19923;-73
2022/08/28 13:25:19;;;;;;;;;;;22.00;99.90;;;;;;8274256;28;19937;-73
2022/08/28 13:29:22;;;;;;;;;;;21.90;99.90;;;;;;8273451;28;19929;-73
2022/08/28 13:33:25;;;;;;;;;;;22.00;99.90;;;;;;8280019;28;19978;-73
2022/08/28 13:37:41;;;;;;;;;;;22.10;99.90;;;;;;8340246;28;19933;-72
2022/08/28 13:46:40;;;;;;;;;;;22.20;99.90;;;;;;8276178;28;20037;-73
2022/08/28 13:50:44;;;;;;;;;;;22.20;99.90;;;;;;8274930;28;20345;-72
2022/08/28 13:54:47;;;;;;;;;;;22.30;99.90;;;;;;8271778;28;19931;-72
2022/08/28 13:58:49;;;;;;;;;;;22.30;99.90;;;;;;8274839;28;19932;-72
2022/08/28 14:07:17;;;;;;;;;;;22.50;99.90;;;;;;8269680;28;19925;-72
2022/08/28 14:11:19;;;;;;;;;;;22.60;99.90;;;;;;8332011;28;19954;-72
2022/08/28 14:15:21;;;;;;;;;;;22.80;99.90;;;;;;8273530;28;19979;-73
2022/08/28 14:19:23;;;;;;;;;;;23.00;99.90;;;;;;8270311;28;20312;-72
2022/08/28 14:23:25;;;;;;;;;;;23.00;99.90;;;;;;8350865;27;20315;-72
2022/08/28 14:27:26;;;;;;;;;;;23.00;99.90;;;;;;8273525;28;19929;-72
2022/08/28 14:31:28;;;;;;;;;;;23.00;99.90;;;;;;8330601;28;20585;-73
2022/08/28 14:35:30;;;;;;;;;;;23.00;99.90;;;;;;8275110;28;20254;-73
2022/08/28 14:39:32;;;;;;;;;;;23.00;99.90;;;;;;8275538;28;20328;-73
2022/08/28 14:43:34;;;;;;;;;;;22.80;99.90;;;;;;8277392;28;19932;-72
2022/08/28 14:47:38;;;;;;;;;;;22.70;99.90;;;;;;8274450;28;19933;-72
2022/08/28 14:51:41;;;;;;;;;;;22.60;99.90;;;;;;8276303;28;19934;-72
2022/08/28 14:55:44;;;;;;;;;;;22.60;99.90;;;;;;8277575;28;20305;-72
2022/08/28 14:59:45;;;;;;;;;;;22.60;99.90;;;;;;8333525;28;19926;-72
2022/08/28 15:03:47;;;;;;;;;;;22.60;99.90;;;;;;8278096;28;19926;-72
2022/08/28 15:07:49;;;;;;;;;;;22.70;99.90;;;;;;8284476;28;19925;-72
2022/08/28 15:11:50;;;;;;;;;;;22.90;99.90;;;;;;8279599;28;19933;-72
2022/08/28 15:15:59;;;;;;;;;;;23.30;99.90;;;;;;8331725;28;20009;-72
2022/08/28 15:20:01;;;;;;;;;;;23.60;99.90;;;;;;8333345;28;19971;-72
2022/08/28 15:24:03;;;;;;;;;;;23.60;99.90;;;;;;8279223;28;19925;-72
2022/08/28 15:28:05;;;;;;;;;;;23.80;99.90;;;;;;8282124;28;19929;-72
2022/08/28 15:32:07;;;;;;;;;;;24.00;99.90;;;;;;8276965;28;20020;-73
2022/08/28 15:36:09;;;;;;;;;;;24.00;99.90;;;;;;8274480;28;19929;-73
2022/08/28 15:44:31;;;;;;;;;;;24.20;99.90;;;;;;8267199;28;19925;-72
2022/08/28 15:48:33;;;;;;;;;;;24.00;99.90;;;;;;8336575;28;19971;-72
2022/08/28 15:52:35;;;;;;;;;;;24.00;99.90;;;;;;8341109;28;19947;-73
2022/08/28 15:56:37;;;;;;;;;;;24.30;99.90;;;;;;8264036;28;19932;-72
2022/08/28 16:00:38;;;;;;;;;;;24.90;99.90;;;;;;8280487;28;19925;-72
2022/08/28 16:04:40;;;;;;;;;;;25.20;99.90;;;;;;8312668;28;19929;-72
2022/08/28 16:08:42;;;;;;;;;;;25.40;99.90;;;;;;8282902;28;19933;-73
2022/08/28 16:12:43;;;;;;;;;;;25.80;99.90;;;;;;8270123;28;20393;-72
2022/08/28 16:16:45;;;;;;;;;;;26.20;99.90;;;;;;8261371;28;20388;-72
2022/08/28 16:20:49;;;;;;;;;;;26.50;99.90;;;;;;8263512;28;19936;-73
2022/08/28 16:24:51;;;;;;;;;;;26.30;99.90;;;;;;8269611;28;19932;-72
2022/08/28 16:28:53;;;;;;;;;;;26.40;99.90;;;;;;8259807;28;19964;-73
2022/08/28 16:32:54;;;;;;;;;;;26.60;99.90;;;;;;8268174;28;19933;-73
2022/08/28 16:36:56;;;;;;;;;;;26.70;99.90;;;;;;8330148;28;20280;-73
2022/08/28 16:40:58;;;;;;;;;;;26.70;99.90;;;;;;8262487;28;19930;-73
2022/08/28 16:45:00;;;;;;;;;;;26.70;99.90;;;;;;8255832;28;20376;-73
2022/08/28 16:49:01;;;;;;;;;;;26.70;99.90;;;;;;8262841;28;19921;-73
2022/08/28 16:53:03;;;;;;;;;;;26.80;99.90;;;;;;8263362;28;19930;-73
2022/08/28 16:57:07;;;;;;;;;;;27.00;99.90;;;;;;8281939;28;19926;-72
2022/08/28 17:01:09;;;;;;;;;;;27.00;99.90;;;;;;8427633;28;19950;-73
2022/08/28 17:05:12;;;;;;;;;;;26.80;99.90;;;;;;8414794;28;20038;-74
2022/08/28 17:09:13;;;;;;;;;;;26.60;99.90;;;;;;8426891;28;20323;-73
2022/08/28 17:13:15;;;;;;;;;;;26.70;99.90;;;;;;8409722;28;19924;-73
2022/08/28 17:17:17;;;;;;;;;;;26.60;99.90;;;;;;8427596;28;19924;-73
2022/08/28 17:25:40;;;;;;;;;;;26.40;99.90;;;;;;8423669;28;19935;-74
2022/08/28 17:29:42;;;;;;;;;;;26.10;99.90;;;;;;8424666;28;20307;-74
2022/08/28 17:33:44;;;;;;;;;;;26.00;99.90;;;;;;8423561;28;20384;-74
2022/08/28 17:37:45;;;;;;;;;;;25.80;99.90;;;;;;8418206;28;19930;-74
2022/08/28 17:41:47;;;;;;;3.75;1.45;;;25.70;99.90;;;;;;8429315;27;19931;-73
2022/08/28 17:45:49;;;;;;;1.90;1.00;;;25.50;99.90;;;;;;8429114;28;20060;-74
2022/08/28 17:49:50;;;;;;;;;;;25.10;99.90;;;;;;8431739;28;20040;-73
2022/08/28 17:53:52;;;;;;;;;;;24.70;99.90;;;;;;8426336;28;19925;-74
2022/08/28 17:57:54;;;;;;;;;;;24.30;99.90;;;;;;8408536;28;19923;-73
2022/08/28 18:01:55;;;;;;;;;;;24.00;99.90;;;;;;8417354;28;19932;-73
2022/08/28 18:05:58;;;;;;;;;;;23.70;99.90;;;;;;8427349;28;19924;-73
2022/08/28 18:09:59;;;;;;;;;;;23.40;99.90;;;;;;8409055;28;19928;-72
2022/08/28 18:14:01;;;;;;;;;;;23.20;99.90;;;;;;8425842;28;19924;-73
2022/08/28 18:18:03;;;;;;;;;;;23.00;99.90;;;;;;8413694;28;19924;-73
2022/08/28 18:22:06;;;;;;;;;;;22.80;99.90;;;;;;8422154;28;20376;-74
2022/08/28 18:26:07;;;;;;;;;;;22.60;99.90;;;;;;8423391;27;19919;-72
2022/08/28 18:30:09;;;;;;;;;;;22.50;99.90;;;;;;8412965;28;19919;-73
2022/08/28 18:34:11;;;;;;;;;;;22.40;99.90;;;;;;8425981;28;19927;-73
2022/08/28 18:38:13;;;;;;;;;;;22.20;99.90;;;;;;8431326;28;20235;-72
2022/08/28 18:42:15;;;;;;;;;;;22.10;99.90;;;;;;8406759;28;19928;-72
2022/08/28 18:46:17;;;;;;;;;;;22.00;99.90;;;;;;8424291;28;19924;-72
2022/08/28 18:50:20;;;;;;;;;;;22.00;99.90;;;;;;8398272;28;19924;-71
2022/08/28 18:54:22;;;;;;;;;;;21.90;99.90;;;;;;8423025;28;20287;-72
2022/08/28 18:58:26;;;;;;;;;;;21.80;99.90;;;;;;8416420;28;19920;-72
2022/08/28 19:02:27;;;;;;;;;;;21.70;99.90;;;;;;8419149;28;19924;-72
2022/08/28 19:06:29;;;;;;;;;;;21.70;99.90;;;;;;8424633;28;19962;-72
2022/08/28 19:10:32;;;;;;;;;;;21.60;99.90;;;;;;8421644;28;19920;-72
2022/08/28 19:14:36;;;;;;;;;;;21.50;99.90;;;;;;8426085;28;19985;-73
2022/08/28 19:18:37;;;;;;;;;;;21.50;99.90;;;;;;8403323;28;19920;-72
2022/08/28 19:22:39;;;;;;;;;;;21.40;99.90;;;;;;8422531;28;19920;-72
2022/08/28 19:26:41;;;;;;;;;;;21.30;99.90;;;;;;8403133;28;19949;-72
2022/08/28 19:30:42;;;;;;;;;;;21.30;99.90;;;;;;8422756;28;19924;-73
2022/08/28 19:34:44;;;;;;;;;;;21.20;99.90;;;;;;8431055;28;19948;-72
2022/08/28 19:38:46;;;;;;;;;;;21.10;99.90;;;;;;8431273;28;19927;-72
2022/08/28 19:42:48;;;;;;;;;;;21.10;99.90;;;;;;8422257;27;19923;-73
2022/08/28 19:46:50;;;;;;;;;;;21.00;99.90;;;;;;8418843;28;19931;-72
2022/08/28 19:50:59;;;;;;;;;;;20.90;99.90;;;;;;8434477;28;19924;-73
2022/08/28 19:55:00;;;;;;;;;;;20.80;99.90;;;;;;8427794;28;19923;-73
2022/08/28 19:59:03;;;;;;;;;;;20.70;99.90;;;;;;8426401;28;20366;-72
2022/08/28 20:03:05;;;;;;;;;;;20.70;99.90;;;;;;8404464;28;19919;-72
2022/08/28 20:07:06;;;;;;;;;;;20.60;99.90;;;;;;8423541;28;19928;-72
2022/08/28 20:11:09;;;;;;;;;;;20.50;99.90;;;;;;8430836;28;19934;-73
2022/08/28 20:15:12;;;;;;;;;;;20.40;99.90;;;;;;8422962;28;19919;-72
2022/08/28 20:19:17;;;;;;;;;;;20.30;99.90;;;;;;8421798;28;20374;-72
2022/08/28 20:23:19;;;;;;;;;;;20.20;99.90;;;;;;8412149;28;20389;-73
2022/08/28 20:27:21;;;;;;;;;;;20.10;99.90;;;;;;8418933;28;19924;-73
2022/08/28 20:31:22;;;;;;;;;;;20.00;99.90;;;;;;8402040;28;19931;-73
2022/08/28 20:35:24;;;;;;;;;;;19.90;99.90;;;;;;8402150;28;20351;-72
2022/08/28 20:39:28;;;;;;;;;;;19.90;99.90;;;;;;8424756;28;19934;-72
2022/08/28 20:43:29;;;;;;;;;;;19.80;99.90;;;;;;8426595;27;20493;-73
2022/08/28 20:47:31;;;;;;;;;;;19.80;99.90;;;;;;8431334;28;19935;-72
2022/08/28 20:51:51;;;;;;;;;;;19.70;99.90;;;;;;8422423;28;19924;-73
2022/08/28 20:55:53;;;;;;;;;;;19.70;99.90;;;;;;8424591;28;19924;-73
2022/08/28 20:59:55;;;;;;;;;;;19.60;99.90;;;;;;8432913;28;19920;-73
2022/08/28 21:03:57;;;;;;;;;;;19.70;99.90;;;;;;8435667;28;19920;-72
2022/08/28 21:07:59;;;;;;;;;;;19.60;99.90;;;;;;8450552;28;20398;-72
2022/08/28 21:12:01;;;;;;;;;;;19.50;99.90;;;;;;8453080;27;19920;-73
2022/08/28 21:16:02;;;;;;;;;;;19.50;99.90;;;;;;8439728;27;19932;-72
2022/08/28 21:20:06;;;;;;;;;;;19.40;99.90;;;;;;8431753;28;19920;-72
2022/08/28 21:24:10;;;;;;;;;;;19.30;99.90;;;;;;8444732;28;19923;-73
2022/08/28 21:28:11;;;;;;;;;;;19.20;99.90;;;;;;8445197;28;19920;-72
2022/08/28 21:32:13;;;;;;;;;;;19.10;99.90;;;;;;8442451;28;20379;-73
2022/08/28 21:36:16;;;;;;;;;;;19.10;99.90;;;;;;8423070;28;19920;-72
2022/08/28 21:40:18;;;;;;;;;;;19.00;99.90;;;;;;8444992;28;19920;-73
2022/08/28 21:44:22;;;;;;;;;;;19.00;99.90;;;;;;8437011;28;19923;-73
2022/08/28 21:48:23;;;;;;;;;;;18.90;99.90;;;;;;8430396;28;20344;-73
2022/08/28 21:52:27;;;;;;;;;;;18.70;99.90;;;;;;8440584;28;19920;-73
2022/08/28 21:56:29;;;;;;;;;;;18.70;99.90;;;;;;8440797;28;19923;-72
2022/08/28 22:00:31;;;;;;;;;;;18.60;99.90;;;;;;8425907;28;19920;-73
2022/08/28 22:04:33;;;;;;;;;;;18.60;99.90;;;;;;8440593;27;19927;-73
2022/08/28 22:08:35;;;;;;;;;;;18.50;99.90;;;;;;8444277;28;19923;-73
2022/08/28 22:12:37;;;;;;;;;;;18.50;99.90;;;;;;8447026;28;19924;-73
2022/08/28 22:16:39;;;;;;;;;;;18.40;99.90;;;;;;8423611;28;19946;-73
2022/08/28 22:25:02;;;;;;;;;;;18.30;99.90;;;;;;8442306;28;19928;-73
2022/08/28 22:29:04;;;;;;;;;;;18.30;99.90;;;;;;8446538;28;19931;-73
2022/08/28 22:33:06;;;;;;;;;;;18.20;99.90;;;;;;8449206;28;19931;-72
2022/08/28 22:37:10;;;;;;;;;;;18.20;99.90;;;;;;8447163;28;19926;-73
2022/08/28 22:41:12;;;;;;;;;;;18.10;99.90;;;;;;8441765;28;19920;-73
2022/08/28 22:45:14;;;;;;;;;;;18.00;99.90;;;;;;8449822;28;19926;-73
2022/08/28 22:49:15;;;;;;;;;;;17.90;99.90;;;;;;8436593;28;20596;-73
2022/08/28 22:53:17;;;;;;;;;;;17.90;99.90;;;;;;8432182;28;19928;-72
2022/08/28 22:57:19;;;;;;;;;;;17.80;99.90;;;;;;8440141;28;20626;-72
2022/08/28 23:01:23;;;;;;;;;;;17.70;99.90;;;;;;8452779;28;20175;-73
2022/08/28 23:05:25;;;;;;;;;;;17.70;99.90;;;;;;8449025;28;20286;-73
2022/08/28 23:09:27;;;;;;;;;;;17.60;99.90;;;;;;8451016;28;19923;-73
2022/08/28 23:13:29;;;;;;;;;;;17.50;99.90;;;;;;8451802;27;19931;-73
2022/08/28 23:17:31;;;;;;;;;;;17.50;99.90;;;;;;8446246;28;19935;-73
2022/08/28 23:26:36;;;;;;;;;;;17.30;99.90;;;;;;8444993;28;19941;-72
2022/08/28 23:30:40;;;;;;;;;;;17.20;99.90;;;;;;8445816;28;20370;-73
2022/08/28 23:34:41;;;;;;;;;;;17.10;99.90;;;;;;8451051;28;19928;-72
2022/08/28 23:38:43;;;;;;;;;;;17.10;99.90;;;;;;8453925;28;19927;-73
2022/08/28 23:42:45;;;;;;;;;;;17.00;99.90;;;;;;8436906;27;19930;-73
2022/08/28 23:46:46;;;;;;;;;;;16.90;99.90;;;;;;8450605;28;19927;-72
2022/08/28 23:50:48;;;;;;;;;;;16.80;99.90;;;;;;8447337;28;19920;-73
2022/08/28 23:54:50;;;;;;;;;;;16.80;99.90;;;;;;8453896;28;19935;-73
2022/08/28 23:58:52;;;;;;;;;;;16.70;99.90;;;;;;8440728;28;19930;-72
